This is the latest recevied weather packets stored in our database for station/object N9XTN-3. If no packets are shown the sender has not sent any weather packets the latest 10 day(s).
| Time | Temp. | Humidity | Pressure | Rain* | Wind** | Luminosity | Snow |
|---|---|---|---|---|---|---|---|
| 1777269917 | 16.11° C | 93% | 1002.2 hPa | 0 mm | - | - | - |
| 1777268417 | 16.11° C | 92% | 1003.7 hPa | 0 mm | - | - | - |
| 1777267217 | 16.67° C | 92% | 1003.8 hPa | 0 mm | - | - | - |
| 1777264237 | 16.11° C | 92% | 1004.3 hPa | 0 mm | - | - | - |
| 1777262417 | 16.67° C | 91% | 1003.8 hPa | 0 mm | - | - | - |
| 1777262117 | 16.67° C | 91% | 1003.8 hPa | 0 mm | - | - | - |
| 1777261517 | 16.67° C | 90% | 1004.1 hPa | 0 mm | - | - | - |
| 1777260617 | 16.67° C | 90% | 1004.4 hPa | 0 mm | - | - | - |
| 1777259717 | 16.67° C | 90% | 1004.2 hPa | 0 mm | - | - | - |
| 1777258517 | 16.67° C | 89% | 1004.1 hPa | 0 mm | - | - | - |
| 1777256437 | 17.22° C | 86% | 1004.3 hPa | 0 mm | - | - | - |
| 1777255817 | 17.22° C | 85% | 1004.4 hPa | 0 mm | - | - | - |
| 1777255517 | 17.78° C | 85% | 1004.2 hPa | 0 mm | - | - | - |
| 1777255217 | 17.78° C | 84% | 1004.3 hPa | 0 mm | - | - | - |
| 1777254937 | 17.78° C | 84% | 1004.4 hPa | 0 mm | - | - | - |
| 1777251937 | 18.89° C | 81% | 1004.2 hPa | 0 mm | - | - | - |
| 1777250717 | 18.89° C | 80% | 1004.1 hPa | 0 mm | - | - | - |
| 1777247417 | 19.44° C | 75% | 1004.3 hPa | 0 mm | - | - | - |
| 1777245917 | 20° C | 75% | 1004.1 hPa | 0 mm | - | - | - |
| 1777245617 | 20° C | 75% | 1004.2 hPa | 0 mm | - | - | - |
| 1777241437 | 18.89° C | 84% | 1004.6 hPa | 0 mm | - | - | - |
| 1777240517 | 18.33° C | 84% | 1004.8 hPa | 0 mm | - | - | - |
| 1777240217 | 18.33° C | 85% | 1004.9 hPa | 0 mm | - | - | - |
| 1777239017 | 18.33° C | 85% | 1005.4 hPa | 0 mm | - | - | - |
| 1777238417 | 17.78° C | 85% | 1005.5 hPa | 0 mm | - | - | - |
* Rain latest hour (hover to see other rain measurements)
** Current wind speed in m/s (hover to see current wind gust speed)